Ambleve, Belgium
Current Conditions -  °F | °C
As of 8:25 AM on Sunday 23 Nov 2014 (Local Time) from EBLB Reporting Station
Few Clouds Few Clouds  
Wind Chill:   Ceiling: Unl
Heat Index:   Visibility: 6mi
Dew Point:   Wind: 12mph
Humidity: 87%   Direction: 190°S
Pressure: 30.09"   Gusts: NA
Location:  50.35°N, 6.17°E
Report Text: EBLB 230725Z AUTO 19010KT 9999 FEW007/// 09/07 Q1019 BLU
Loading
Personal Weather Stations






























Interactive Weather Map New forecast layout! Learn more

10-Day Weather Forecast

Advertisements
Track Severe Weather on mobile